Brockwell, Arkansas
Current Conditions -  °F | °C
As of 9:55 AM on Sunday 21 Dec 2014 (Local Time) from KBVX Reporting Station
Overcast Overcast  
Wind Chill: 38°   Ceiling: 4500
Heat Index: 43°   Visibility: 10mi
Dew Point: 32°   Wind: 8mph
Humidity: 66%   Direction: 110°ESE
Pressure: 30.2"   Gusts: NA
Location:  36.14°N, 91.93°W
Report Text: KBVX 211555Z AUTO 11007KT 10SM OVC045 06/00 A3020 RMK AO1
Loading
Personal Weather Stations






























Interactive Weather Map New forecast layout! Learn more

10-Day Weather Forecast

Advertisements
Track Severe Weather on mobile